Terminal Aerodrome Forecast
Issued by NWS

Home | Current Version | Previous Version | Text Only | Print | Product List | Glossary Off
Versions: 1 2 3 4 5 6 7 8 9 10 11 12 13 14 15

000
FTUS42 KTBW 252326
TAFRSW
TAF
KRSW 252326Z 2600/2624 VRB03KT P6SM VCTS SCT050CB BKN100
     FM260200 10004KT P6SM SCT035 BKN250
     FM260400 VRB03KT P6SM SKC
     FM261400 08004KT P6SM SCT030 SCT250
     FM261800 14007KT P6SM VCTS SCT040CB BKN250=

USA.gov is the U.S. government's official web portal to all federal, state and local government web resources and services.